Time,TemperatureF,DewpointF,PressureIn,WindDirection,WindDirectionDegrees,WindSpeedMPH,WindSpeedGustMPH,Humidity,HourlyPrecipIn,Conditions,Clouds,dailyrainin,SoftwareType,DateUTC
2013-02-23 00:02:00,31.8,30.5,29.67,SSW,192,0.0,0.0,95,0.00,,,0.02,Wunderground v.1.15,2013-02-23 07:02:00,
2013-02-23 00:08:00,31.8,30.5,29.67,SSW,192,0.0,0.0,95,0.00,,,0.00,Wunderground v.1.15,2013-02-23 07:08:00,
2013-02-23 00:14:00,31.8,30.5,29.67,SSW,192,0.0,0.0,95,0.00,,,0.00,Wunderground v.1.15,2013-02-23 07:14:00,
2013-02-23 00:20:00,31.7,30.4,29.66,SSW,192,0.0,0.0,95,0.00,,,0.00,Wunderground v.1.15,2013-02-23 07:20:00,
2013-02-23 00:26:00,31.7,30.4,29.66,SSW,192,0.0,0.0,95,0.00,,,0.00,Wunderground v.1.15,2013-02-23 07:26:00,
2013-02-23 00:31:00,31.7,30.4,29.66,SSW,192,0.0,0.0,95,0.00,,,0.00,Wunderground v.1.15,2013-02-23 07:31:00,
2013-02-23 00:36:00,31.6,30.3,29.66,SSW,192,0.0,0.0,95,0.00,,,0.00,Wunderground v.1.15,2013-02-23 07:36:00,
2013-02-23 00:42:00,31.5,30.2,29.66,SSW,192,0.0,0.0,95,0.00,,,0.00,Wunderground v.1.15,2013-02-23 07:42:00,
2013-02-23 00:47:00,31.5,30.2,29.66,SSW,192,0.0,0.0,95,0.00,,,0.00,Wunderground v.1.15,2013-02-23 07:47:00,
2013-02-23 00:52:00,31.4,30.1,29.66,SSW,192,0.0,0.0,95,0.00,,,0.00,Wunderground v.1.15,2013-02-23 07:52:00,
2013-02-23 00:58:00,31.4,30.1,29.66,SSW,192,0.0,0.0,95,0.00,,,0.00,Wunderground v.1.15,2013-02-23 07:58:00,
2013-02-23 01:04:00,31.4,30.4,29.66,SSW,192,0.0,0.0,96,0.00,,,0.00,Wunderground v.1.15,2013-02-23 08:04:00,
2013-02-23 01:10:00,31.3,30.0,29.65,SSW,192,0.0,0.0,95,0.00,,,0.00,Wunderground v.1.15,2013-02-23 08:10:00,
2013-02-23 01:15:00,31.3,30.0,29.65,SSW,192,0.0,0.0,95,0.00,,,0.00,Wunderground v.1.15,2013-02-23 08:15:00,
2013-02-23 01:20:00,31.2,29.9,29.65,SSW,192,0.0,0.0,95,0.00,,,0.00,Wunderground v.1.15,2013-02-23 08:20:00,
2013-02-23 01:26:00,31.2,29.9,29.65,SSW,192,0.0,0.0,95,0.00,,,0.00,Wunderground v.1.15,2013-02-23 08:26:00,
2013-02-23 01:32:00,31.1,29.8,29.66,SSW,192,0.0,0.0,95,0.00,,,0.00,Wunderground v.1.15,2013-02-23 08:32:00,
2013-02-23 01:38:00,31.1,29.8,29.65,SSW,192,0.0,0.0,95,0.00,,,0.00,Wunderground v.1.15,2013-02-23 08:38:00,
2013-02-23 01:43:00,31.0,29.7,29.65,SSW,192,0.0,0.0,95,0.00,,,0.00,Wunderground v.1.15,2013-02-23 08:43:00,
2013-02-23 01:49:00,30.9,29.6,29.66,SSW,192,0.0,0.0,95,0.00,,,0.00,Wunderground v.1.15,2013-02-23 08:49:00,
2013-02-23 01:55:00,30.8,29.5,29.66,SSW,192,0.0,0.0,95,0.00,,,0.00,Wunderground v.1.15,2013-02-23 08:55:00,
2013-02-23 02:01:00,30.7,29.4,29.65,South,190,0.0,1.0,95,0.00,,,0.00,Wunderground v.1.15,2013-02-23 09:01:00,
2013-02-23 02:06:00,30.6,29.3,29.66,South,177,1.0,2.0,95,0.00,,,0.00,Wunderground v.1.15,2013-02-23 09:06:00,
2013-02-23 02:12:00,30.8,29.5,29.66,South,182,1.0,1.0,95,0.00,,,0.00,Wunderground v.1.15,2013-02-23 09:12:00,
2013-02-23 02:18:00,30.8,29.8,29.66,South,182,1.0,2.0,96,0.00,,,0.00,Wunderground v.1.15,2013-02-23 09:18:00,
2013-02-23 02:23:00,30.9,29.9,29.66,South,174,1.0,4.0,96,0.00,,,0.00,Wunderground v.1.15,2013-02-23 09:23:00,
2013-02-23 02:29:00,31.1,30.1,29.66,South,169,1.0,4.0,96,0.00,,,0.00,Wunderground v.1.15,2013-02-23 09:29:00,
2013-02-23 02:35:00,31.2,30.2,29.68,West,263,1.0,1.0,96,0.00,,,0.00,Wunderground v.1.15,2013-02-23 09:35:00,
2013-02-23 02:41:00,31.3,30.3,29.69,North,5,0.0,1.0,96,0.00,,,0.00,Wunderground v.1.15,2013-02-23 09:41:00,
2013-02-23 02:47:00,31.6,30.6,29.69,SE,126,0.0,2.0,96,0.00,,,0.00,Wunderground v.1.15,2013-02-23 09:47:00,
2013-02-23 02:52:00,31.6,30.6,29.69,ENE,62,0.0,1.0,96,0.00,,,0.00,Wunderground v.1.15,2013-02-23 09:52:00,
2013-02-23 02:58:00,31.6,30.6,29.69,ENE,74,0.0,1.0,96,0.00,,,0.00,Wunderground v.1.15,2013-02-23 09:58:00,
2013-02-23 03:04:00,31.5,30.5,29.69,ENE,74,0.0,0.0,96,0.00,,,0.00,Wunderground v.1.15,2013-02-23 10:04:00,
2013-02-23 03:10:00,31.5,30.2,29.69,ENE,74,0.0,0.0,95,0.00,,,0.00,Wunderground v.1.15,2013-02-23 10:10:00,
2013-02-23 03:16:00,31.3,30.0,29.69,ENE,74,0.0,0.0,95,0.00,,,0.00,Wunderground v.1.15,2013-02-23 10:16:00,
2013-02-23 03:21:00,31.1,29.8,29.69,South,170,0.0,0.0,95,0.00,,,0.00,Wunderground v.1.15,2013-02-23 10:21:00,
2013-02-23 03:27:00,30.9,29.6,29.69,South,170,0.0,0.0,95,0.00,,,0.00,Wunderground v.1.15,2013-02-23 10:27:00,
2013-02-23 03:33:00,30.7,29.4,29.69,South,170,0.0,0.0,95,0.00,,,0.00,Wunderground v.1.15,2013-02-23 10:33:00,
2013-02-23 03:39:00,30.5,29.2,29.69,South,180,0.0,0.0,95,0.00,,,0.00,Wunderground v.1.15,2013-02-23 10:39:00,
2013-02-23 03:44:00,30.3,29.0,29.69,South,180,0.0,0.0,95,0.00,,,0.00,Wunderground v.1.15,2013-02-23 10:44:00,
2013-02-23 03:50:00,30.1,28.8,29.69,South,176,0.0,0.0,95,0.00,,,0.00,Wunderground v.1.15,2013-02-23 10:50:00,
2013-02-23 03:56:00,29.9,28.4,29.70,SSW,202,0.0,0.0,94,0.00,,,0.00,Wunderground v.1.15,2013-02-23 10:56:00,
2013-02-23 04:02:00,29.6,28.1,29.70,SSW,202,0.0,0.0,94,0.00,,,0.00,Wunderground v.1.15,2013-02-23 11:02:00,
2013-02-23 04:08:00,29.3,27.5,29.71,South,173,0.0,0.0,93,0.00,,,0.00,Wunderground v.1.15,2013-02-23 11:08:00,
2013-02-23 04:13:00,29.1,27.3,29.71,SSW,197,0.0,2.0,93,0.00,,,0.00,Wunderground v.1.15,2013-02-23 11:13:00,
2013-02-23 04:19:00,29.0,27.2,29.71,South,178,0.0,2.0,93,0.00,,,0.00,Wunderground v.1.15,2013-02-23 11:19:00,
2013-02-23 04:25:00,29.0,27.2,29.72,SSE,150,1.0,4.0,93,0.00,,,0.00,Wunderground v.1.15,2013-02-23 11:25:00,
2013-02-23 04:30:00,29.0,27.0,29.73,SW,236,2.0,2.0,92,0.00,,,0.00,Wunderground v.1.15,2013-02-23 11:30:00,
2013-02-23 04:36:00,29.2,26.9,29.73,South,177,2.0,4.0,91,0.00,,,0.00,Wunderground v.1.15,2013-02-23 11:36:00,
2013-02-23 04:41:00,29.4,26.8,29.73,SSW,213,1.0,2.0,90,0.00,,,0.00,Wunderground v.1.15,2013-02-23 11:41:00,
2013-02-23 04:46:00,29.5,26.9,29.72,SSE,164,1.0,3.0,90,0.00,,,0.00,Wunderground v.1.15,2013-02-23 11:46:00,
2013-02-23 04:52:00,29.6,27.0,29.72,West,279,1.0,3.0,90,0.00,,,0.00,Wunderground v.1.15,2013-02-23 11:52:00,
2013-02-23 04:58:00,29.6,27.0,29.72,South,190,1.0,8.0,90,0.00,,,0.00,Wunderground v.1.15,2013-02-23 11:58:00,
2013-02-23 05:03:00,29.7,26.9,29.72,South,185,2.0,7.0,89,0.00,,,0.00,Wunderground v.1.15,2013-02-23 12:03:00,
2013-02-23 05:13:00,29.7,26.9,29.72,SE,142,1.0,4.0,89,0.00,,,0.00,Wunderground v.1.15,2013-02-23 12:13:00,
2013-02-23 05:19:00,29.6,26.8,29.72,South,171,1.0,4.0,89,0.00,,,0.00,Wunderground v.1.15,2013-02-23 12:19:00,
2013-02-23 05:25:00,29.5,26.7,29.73,SSE,153,0.0,2.0,89,0.00,,,0.00,Wunderground v.1.15,2013-02-23 12:25:00,
2013-02-23 05:30:00,29.3,26.2,29.73,SSW,192,1.0,2.0,88,0.00,,,0.00,Wunderground v.1.15,2013-02-23 12:30:00,
2013-02-23 05:36:00,29.1,26.0,29.73,South,177,2.0,4.0,88,0.00,,,0.00,Wunderground v.1.15,2013-02-23 12:36:00,
2013-02-23 05:42:00,29.0,25.9,29.73,South,180,2.0,2.0,88,0.00,,,0.00,Wunderground v.1.15,2013-02-23 12:42:00,
2013-02-23 05:48:00,28.9,25.5,29.72,South,184,2.0,3.0,87,0.00,,,0.00,Wunderground v.1.15,2013-02-23 12:48:00,
2013-02-23 05:54:00,28.8,25.4,29.72,South,171,2.0,2.0,87,0.00,,,0.00,Wunderground v.1.15,2013-02-23 12:54:00,
2013-02-23 06:00:00,28.8,25.4,29.73,South,177,1.0,1.0,87,0.00,,,0.00,Wunderground v.1.15,2013-02-23 13:00:00,
2013-02-23 06:05:00,28.6,25.2,29.74,ESE,121,0.0,1.0,87,0.00,,,0.00,Wunderground v.1.15,2013-02-23 13:05:00,
2013-02-23 06:11:00,28.3,24.9,29.75,ESE,121,0.0,0.0,87,0.00,,,0.00,Wunderground v.1.15,2013-02-23 13:11:00,
2013-02-23 06:17:00,28.1,24.7,29.76,South,188,0.0,0.0,87,0.00,,,0.00,Wunderground v.1.15,2013-02-23 13:17:00,
2013-02-23 06:22:00,28.1,24.5,29.76,West,261,0.0,0.0,86,0.00,,,0.00,Wunderground v.1.15,2013-02-23 13:22:00,
2013-02-23 06:28:00,28.1,24.7,29.77,WNW,297,0.0,2.0,87,0.00,,,0.00,Wunderground v.1.15,2013-02-23 13:28:00,
2013-02-23 06:34:00,28.0,24.6,29.78,NE,45,1.0,3.0,87,0.00,,,0.00,Wunderground v.1.15,2013-02-23 13:34:00,
2013-02-23 06:40:00,27.8,24.7,29.78,NE,46,0.0,0.0,88,0.00,,,0.00,Wunderground v.1.15,2013-02-23 13:40:00,
2013-02-23 06:46:00,27.8,24.7,29.79,ENE,71,0.0,1.0,88,0.00,,,0.00,Wunderground v.1.15,2013-02-23 13:46:00,
2013-02-23 06:52:00,27.9,24.5,29.78,South,182,1.0,2.0,87,0.00,,,0.00,Wunderground v.1.15,2013-02-23 13:52:00,
2013-02-23 06:57:00,28.1,24.7,29.78,South,175,1.0,2.0,87,0.00,,,0.00,Wunderground v.1.15,2013-02-23 13:57:00,
2013-02-23 07:03:00,28.3,24.9,29.78,South,191,0.0,3.0,87,0.00,,,0.00,Wunderground v.1.15,2013-02-23 14:03:00,
2013-02-23 07:09:00,28.5,24.8,29.78,East,96,1.0,3.0,86,0.00,,,0.00,Wunderground v.1.15,2013-02-23 14:09:00,
2013-02-23 07:15:00,28.7,25.0,29.79,SSW,204,1.0,2.0,86,0.00,,,0.00,Wunderground v.1.15,2013-02-23 14:15:00,
2013-02-23 07:20:00,28.8,24.9,29.79,SSE,150,1.0,1.0,85,0.00,,,0.00,Wunderground v.1.15,2013-02-23 14:20:00,
2013-02-23 07:26:00,28.9,25.2,29.79,SSE,168,0.0,4.0,86,0.00,,,0.00,Wunderground v.1.15,2013-02-23 14:26:00,
2013-02-23 07:32:00,28.9,25.0,29.79,South,179,1.0,1.0,85,0.00,,,0.00,Wunderground v.1.15,2013-02-23 14:32:00,
2013-02-23 07:38:00,28.9,25.2,29.78,South,180,0.0,1.0,86,0.00,,,0.00,Wunderground v.1.15,2013-02-23 14:38:00,
2013-02-23 07:44:00,28.7,24.8,29.79,South,179,0.0,0.0,85,0.00,,,0.00,Wunderground v.1.15,2013-02-23 14:44:00,
2013-02-23 07:49:00,28.5,24.3,29.79,SSE,162,0.0,1.0,84,0.00,,,0.00,Wunderground v.1.15,2013-02-23 14:49:00,
2013-02-23 07:55:00,28.3,24.1,29.80,SSW,197,1.0,3.0,84,0.00,,,0.00,Wunderground v.1.15,2013-02-23 14:55:00,
2013-02-23 08:01:00,28.1,23.9,29.80,SSW,199,1.0,1.0,84,0.00,,,0.00,Wunderground v.1.15,2013-02-23 15:01:00,
2013-02-23 08:07:00,28.0,23.8,29.80,SSW,202,0.0,2.0,84,0.00,,,0.00,Wunderground v.1.15,2013-02-23 15:07:00,
2013-02-23 08:13:00,27.9,24.0,29.81,SSW,202,0.0,0.0,85,0.00,,,0.00,Wunderground v.1.15,2013-02-23 15:13:00,
2013-02-23 08:19:00,27.8,23.9,29.81,SSW,202,0.0,0.0,85,0.00,,,0.00,Wunderground v.1.15,2013-02-23 15:19:00,
2013-02-23 08:24:00,27.7,24.1,29.82,SSW,200,0.0,1.0,86,0.00,,,0.00,Wunderground v.1.15,2013-02-23 15:24:00,
2013-02-23 08:30:00,27.7,24.1,29.82,SSW,192,0.0,0.0,86,0.00,,,0.00,Wunderground v.1.15,2013-02-23 15:30:00,
2013-02-23 08:35:00,27.8,23.6,29.82,South,181,1.0,5.0,84,0.00,,,0.00,Wunderground v.1.15,2013-02-23 15:35:00,
2013-02-23 08:41:00,28.0,23.8,29.82,SSW,193,2.0,2.0,84,0.00,,,0.00,Wunderground v.1.15,2013-02-23 15:41:00,
2013-02-23 08:47:00,28.3,23.5,29.83,South,181,2.0,6.0,82,0.00,,,0.00,Wunderground v.1.15,2013-02-23 15:47:00,
2013-02-23 08:53:00,28.6,23.5,29.83,SSE,168,3.0,5.0,81,0.00,,,0.00,Wunderground v.1.15,2013-02-23 15:53:00,
2013-02-23 08:59:00,28.9,23.5,29.83,South,186,3.0,6.0,80,0.00,,,0.00,Wunderground v.1.15,2013-02-23 15:59:00,
2013-02-23 09:05:00,29.1,23.4,29.83,South,178,4.0,8.0,79,0.00,,,0.00,Wunderground v.1.15,2013-02-23 16:05:00,
2013-02-23 09:10:00,29.2,23.5,29.83,South,188,3.0,6.0,79,0.00,,,0.00,Wunderground v.1.15,2013-02-23 16:10:00,
2013-02-23 09:16:00,29.4,23.4,29.83,SSW,213,4.0,9.0,78,0.00,,,0.00,Wunderground v.1.15,2013-02-23 16:16:00,
2013-02-23 09:22:00,29.6,23.6,29.84,South,184,3.0,5.0,78,0.00,,,0.00,Wunderground v.1.15,2013-02-23 16:22:00,
2013-02-23 09:27:00,29.8,23.5,29.85,SSW,192,2.0,5.0,77,0.00,,,0.00,Wunderground v.1.15,2013-02-23 16:27:00,
2013-02-23 09:32:00,29.9,24.5,29.85,ENE,69,1.0,3.0,80,0.00,,,0.00,Wunderground v.1.15,2013-02-23 16:32:00,
2013-02-23 09:38:00,30.1,24.1,29.86,South,182,2.0,5.0,78,0.00,,,0.00,Wunderground v.1.15,2013-02-23 16:38:00,
2013-02-23 09:44:00,30.2,24.8,29.87,South,182,1.0,2.0,80,0.00,,,0.00,Wunderground v.1.15,2013-02-23 16:44:00,
2013-02-23 09:49:00,30.3,24.6,29.87,SSW,200,1.0,9.0,79,0.00,,,0.00,Wunderground v.1.15,2013-02-23 16:49:00,
2013-02-23 09:55:00,30.5,24.8,29.87,SSW,196,1.0,1.0,79,0.00,,,0.00,Wunderground v.1.15,2013-02-23 16:55:00,
2013-02-23 10:01:00,30.6,24.9,29.88,SE,145,0.0,1.0,79,0.00,,,0.00,Wunderground v.1.15,2013-02-23 17:01:00,
2013-02-23 10:07:00,30.7,24.7,29.88,SE,145,0.0,1.0,78,0.00,,,0.00,Wunderground v.1.15,2013-02-23 17:07:00,
2013-02-23 10:13:00,31.0,24.0,29.88,South,174,1.0,4.0,75,0.00,,,0.00,Wunderground v.1.15,2013-02-23 17:13:00,
2013-02-23 10:18:00,31.3,24.0,29.88,SSE,161,2.0,5.0,74,0.00,,,0.00,Wunderground v.1.15,2013-02-23 17:18:00,
2013-02-23 10:24:00,31.5,23.8,29.88,SE,141,2.0,4.0,73,0.00,,,0.00,Wunderground v.1.15,2013-02-23 17:24:00,
2013-02-23 10:29:00,31.6,23.9,29.89,South,178,2.0,4.0,73,0.00,,,0.00,Wunderground v.1.15,2013-02-23 17:29:00,
2013-02-23 10:35:00,31.8,23.8,29.89,South,175,1.0,2.0,72,0.00,,,0.00,Wunderground v.1.15,2013-02-23 17:35:00,
2013-02-23 10:40:00,31.9,23.9,29.89,South,173,1.0,1.0,72,0.00,,,0.00,Wunderground v.1.15,2013-02-23 17:40:00,
2013-02-23 10:46:00,32.2,23.8,29.89,South,172,1.0,4.0,71,0.00,,,0.00,Wunderground v.1.15,2013-02-23 17:46:00,
2013-02-23 10:51:00,32.4,23.7,29.89,SSE,159,2.0,2.0,70,0.00,,,0.00,Wunderground v.1.15,2013-02-23 17:51:00,
2013-02-23 10:57:00,32.4,23.7,29.90,South,174,2.0,6.0,70,0.00,,,0.00,Wunderground v.1.15,2013-02-23 17:57:00,
2013-02-23 11:03:00,32.5,24.1,29.90,South,174,3.0,4.0,71,0.00,,,0.00,Wunderground v.1.15,2013-02-23 18:03:00,
2013-02-23 11:09:00,32.6,23.9,29.90,WSW,242,2.0,4.0,70,0.00,,,0.00,Wunderground v.1.15,2013-02-23 18:09:00,
2013-02-23 11:14:00,32.6,24.2,29.91,West,270,1.0,2.0,71,0.00,,,0.00,Wunderground v.1.15,2013-02-23 18:14:00,
2013-02-23 11:20:00,32.6,23.9,29.91,SE,130,2.0,8.0,70,0.00,,,0.00,Wunderground v.1.15,2013-02-23 18:20:00,
2013-02-23 11:26:00,32.6,24.2,29.91,SSE,159,4.0,8.0,71,0.00,,,0.00,Wunderground v.1.15,2013-02-23 18:26:00,
2013-02-23 11:32:00,32.5,24.1,29.91,South,183,3.0,3.0,71,0.00,,,0.00,Wunderground v.1.15,2013-02-23 18:32:00,
2013-02-23 11:37:00,32.5,24.1,29.91,South,177,2.0,3.0,71,0.00,,,0.00,Wunderground v.1.15,2013-02-23 18:37:00,
2013-02-23 11:43:00,32.6,24.6,29.91,SE,136,2.0,2.0,72,0.00,,,0.00,Wunderground v.1.15,2013-02-23 18:43:00,
2013-02-23 11:49:00,32.5,24.5,29.92,SSE,163,2.0,4.0,72,0.00,,,0.00,Wunderground v.1.15,2013-02-23 18:49:00,
2013-02-23 11:54:00,32.5,24.8,29.92,South,172,1.0,2.0,73,0.00,,,0.00,Wunderground v.1.15,2013-02-23 18:54:00,
2013-02-23 12:00:00,32.7,24.7,29.92,SSW,198,1.0,2.0,72,0.00,,,0.00,Wunderground v.1.15,2013-02-23 19:00:00,
2013-02-23 12:06:00,32.8,25.1,29.92,South,191,1.0,2.0,73,0.00,,,0.00,Wunderground v.1.15,2013-02-23 19:06:00,
2013-02-23 12:12:00,32.9,26.5,29.93,SSE,165,1.0,1.0,77,0.00,,,0.00,Wunderground v.1.15,2013-02-23 19:12:00,
2013-02-23 12:18:00,33.0,25.0,29.93,SSE,149,1.0,2.0,72,0.00,,,0.00,Wunderground v.1.15,2013-02-23 19:18:00,
2013-02-23 12:24:00,32.9,25.2,29.93,SE,146,1.0,2.0,73,0.00,,,0.00,Wunderground v.1.15,2013-02-23 19:24:00,
2013-02-23 12:30:00,32.7,24.7,29.93,South,187,1.0,1.0,72,0.00,,,0.00,Wunderground v.1.15,2013-02-23 19:30:00,
2013-02-23 12:35:00,33.0,24.6,29.93,SSE,154,1.0,4.0,71,0.00,,,0.00,Wunderground v.1.15,2013-02-23 19:35:00,
2013-02-23 12:41:00,32.9,24.2,29.93,SSW,192,1.0,2.0,70,0.00,,,0.00,Wunderground v.1.15,2013-02-23 19:41:00,
2013-02-23 12:47:00,33.0,24.3,29.93,WSW,254,2.0,2.0,70,0.00,,,0.00,Wunderground v.1.15,2013-02-23 19:47:00,
2013-02-23 12:52:00,33.3,24.2,29.93,North,5,1.0,2.0,69,0.00,,,0.00,Wunderground v.1.15,2013-02-23 19:52:00,
2013-02-23 12:58:00,33.5,25.4,29.94,NNE,32,1.0,2.0,72,0.00,,,0.00,Wunderground v.1.15,2013-02-23 19:58:00,
2013-02-23 13:04:00,33.5,26.4,29.94,NE,36,0.0,2.0,75,0.00,,,0.00,Wunderground v.1.15,2013-02-23 20:04:00,
2013-02-23 13:10:00,33.9,24.1,29.94,South,185,1.0,1.0,67,0.00,,,0.00,Wunderground v.1.15,2013-02-23 20:10:00,
2013-02-23 13:15:00,34.1,24.6,29.94,South,185,1.0,1.0,68,0.00,,,0.00,Wunderground v.1.15,2013-02-23 20:15:00,
2013-02-23 13:21:00,34.3,24.5,29.94,SW,234,0.0,1.0,67,0.00,,,0.00,Wunderground v.1.15,2013-02-23 20:21:00,
2013-02-23 13:27:00,34.1,25.0,29.95,SW,229,1.0,2.0,69,0.00,,,0.00,Wunderground v.1.15,2013-02-23 20:27:00,
2013-02-23 13:32:00,34.5,25.0,29.94,SSW,211,1.0,1.0,68,0.00,,,0.00,Wunderground v.1.15,2013-02-23 20:32:00,
2013-02-23 13:38:00,34.8,24.6,29.95,NNE,26,1.0,2.0,66,0.00,,,0.00,Wunderground v.1.15,2013-02-23 20:38:00,
2013-02-23 13:44:00,34.7,24.1,29.95,NNE,26,1.0,1.0,65,0.00,,,0.00,Wunderground v.1.15,2013-02-23 20:44:00,
2013-02-23 13:50:00,35.1,24.1,29.95,NNE,26,0.0,0.0,64,0.00,,,0.00,Wunderground v.1.15,2013-02-23 20:50:00,
2013-02-23 13:56:00,35.5,24.5,29.95,South,185,0.0,2.0,64,0.00,,,0.00,Wunderground v.1.15,2013-02-23 20:56:00,
2013-02-23 14:01:00,35.6,23.9,29.95,WNW,300,1.0,1.0,62,0.00,,,0.00,Wunderground v.1.15,2013-02-23 21:01:00,
2013-02-23 14:07:00,36.0,24.6,29.95,NNE,13,1.0,1.0,63,0.00,,,0.00,Wunderground v.1.15,2013-02-23 21:07:00,
2013-02-23 14:13:00,36.2,24.4,29.95,SW,227,0.0,0.0,62,0.00,,,0.00,Wunderground v.1.15,2013-02-23 21:13:00,
2013-02-23 14:19:00,36.4,24.6,29.95,SSW,200,0.0,4.0,62,0.00,,,0.00,Wunderground v.1.15,2013-02-23 21:19:00,
2013-02-23 14:25:00,36.3,24.5,29.95,South,187,0.0,1.0,62,0.00,,,0.00,Wunderground v.1.15,2013-02-23 21:25:00,
2013-02-23 14:30:00,36.5,24.3,29.95,North,5,1.0,1.0,61,0.00,,,0.00,Wunderground v.1.15,2013-02-23 21:30:00,
2013-02-23 14:36:00,36.6,24.0,29.96,NNE,33,1.0,3.0,60,0.00,,,0.00,Wunderground v.1.15,2013-02-23 21:36:00,
2013-02-23 14:42:00,36.5,25.5,29.96,North,9,1.0,2.0,64,0.00,,,0.00,Wunderground v.1.15,2013-02-23 21:42:00,
2013-02-23 14:48:00,36.2,25.2,29.97,NNE,15,1.0,2.0,64,0.00,,,0.00,Wunderground v.1.15,2013-02-23 21:48:00,
2013-02-23 14:54:00,35.1,25.9,29.97,NNW,341,2.0,6.0,69,0.00,,,0.00,Wunderground v.1.15,2013-02-23 21:54:00,
2013-02-23 15:00:00,35.6,23.5,29.97,WNW,292,2.0,2.0,61,0.00,,,0.00,Wunderground v.1.15,2013-02-23 22:00:00,
2013-02-23 15:06:00,35.2,27.4,29.98,North,351,2.0,4.0,73,0.00,,,0.00,Wunderground v.1.15,2013-02-23 22:06:00,
2013-02-23 15:11:00,34.2,27.4,29.98,North,351,1.0,1.0,76,0.00,,,0.00,Wunderground v.1.15,2013-02-23 22:11:00,
2013-02-23 15:16:00,33.7,26.3,29.98,North,10,0.0,1.0,74,0.00,,,0.00,Wunderground v.1.15,2013-02-23 22:16:00,
2013-02-23 15:22:00,33.4,27.6,29.98,North,10,0.0,0.0,79,0.00,,,0.00,Wunderground v.1.15,2013-02-23 22:22:00,
2013-02-23 15:28:00,33.6,27.5,29.99,North,10,0.0,1.0,78,0.00,,,0.00,Wunderground v.1.15,2013-02-23 22:28:00,
2013-02-23 15:34:00,33.4,27.9,29.99,North,10,0.0,1.0,80,0.00,,,0.00,Wunderground v.1.15,2013-02-23 22:34:00,
2013-02-23 15:40:00,33.0,27.5,29.99,North,10,0.0,0.0,80,0.00,,,0.00,Wunderground v.1.15,2013-02-23 22:40:00,
2013-02-23 15:45:00,33.1,28.2,30.00,North,10,0.0,0.0,82,0.00,,,0.00,Wunderground v.1.15,2013-02-23 22:45:00,
2013-02-23 15:51:00,33.1,27.6,30.00,North,10,0.0,0.0,80,0.00,,,0.00,Wunderground v.1.15,2013-02-23 22:51:00,
2013-02-23 15:57:00,33.2,27.4,30.00,North,10,0.0,0.0,79,0.00,,,0.00,Wunderground v.1.15,2013-02-23 22:57:00,
2013-02-23 16:02:00,33.2,27.7,30.01,North,10,0.0,1.0,80,0.00,,,0.00,Wunderground v.1.15,2013-02-23 23:02:00,
2013-02-23 16:08:00,33.0,27.8,30.01,North,10,1.0,1.0,81,0.00,,,0.00,Wunderground v.1.15,2013-02-23 23:08:00,
2013-02-23 16:14:00,32.8,27.6,30.01,North,355,1.0,2.0,81,0.00,,,0.00,Wunderground v.1.15,2013-02-23 23:14:00,
2013-02-23 16:20:00,32.8,27.9,30.01,NE,56,1.0,1.0,82,0.00,,,0.00,Wunderground v.1.15,2013-02-23 23:20:00,
2013-02-23 16:26:00,32.7,28.1,30.02,NE,56,1.0,1.0,83,0.00,,,0.00,Wunderground v.1.15,2013-02-23 23:26:00,
2013-02-23 16:32:00,32.6,27.7,30.02,NE,56,1.0,1.0,82,0.00,,,0.00,Wunderground v.1.15,2013-02-23 23:32:00,
2013-02-23 16:37:00,32.6,27.7,30.02,NE,56,0.0,1.0,82,0.00,,,0.00,Wunderground v.1.15,2013-02-23 23:37:00,
2013-02-23 16:43:00,32.6,27.7,30.03,NE,56,0.0,0.0,82,0.00,,,0.00,Wunderground v.1.15,2013-02-23 23:43:00,
2013-02-23 16:49:00,32.7,27.8,30.03,NE,56,0.0,1.0,82,0.00,,,0.00,Wunderground v.1.15,2013-02-23 23:49:00,
2013-02-23 16:54:00,32.8,27.9,30.04,NE,56,0.0,0.0,82,0.00,,,0.00,Wunderground v.1.15,2013-02-23 23:54:00,
2013-02-23 17:00:00,32.7,27.2,30.04,NNE,17,0.0,0.0,80,0.00,,,0.00,Wunderground v.1.15,2013-02-24 00:00:00,
2013-02-23 17:06:00,32.7,27.5,30.04,NNE,17,1.0,1.0,81,0.00,,,0.00,Wunderground v.1.15,2013-02-24 00:06:00,
2013-02-23 17:12:00,32.7,27.8,30.04,NNE,17,0.0,0.0,82,0.00,,,0.00,Wunderground v.1.15,2013-02-24 00:12:00,
2013-02-23 17:18:00,32.6,27.4,30.05,North,350,1.0,2.0,81,0.00,,,0.00,Wunderground v.1.15,2013-02-24 00:18:00,
2013-02-23 17:23:00,32.5,27.3,30.05,North,350,1.0,1.0,81,0.00,,,0.00,Wunderground v.1.15,2013-02-24 00:23:00,
2013-02-23 17:29:00,32.6,27.1,30.05,North,350,0.0,1.0,80,0.00,,,0.00,Wunderground v.1.15,2013-02-24 00:29:00,
2013-02-23 17:35:00,32.7,27.5,30.06,North,350,0.0,0.0,81,0.00,,,0.00,Wunderground v.1.15,2013-02-24 00:35:00,
2013-02-23 17:40:00,32.7,27.8,30.06,North,350,0.0,0.0,82,0.00,,,0.00,Wunderground v.1.15,2013-02-24 00:40:00,
2013-02-23 17:46:00,32.8,27.9,30.06,North,350,0.0,0.0,82,0.00,,,0.00,Wunderground v.1.15,2013-02-24 00:46:00,
2013-02-23 17:52:00,32.8,27.9,30.06,North,350,0.0,0.0,82,0.00,,,0.00,Wunderground v.1.15,2013-02-24 00:52:00,
2013-02-23 17:58:00,32.7,27.8,30.07,North,350,0.0,2.0,82,0.00,,,0.00,Wunderground v.1.15,2013-02-24 00:58:00,
2013-02-23 18:03:00,32.7,28.1,30.07,North,350,0.0,0.0,83,0.00,,,0.00,Wunderground v.1.15,2013-02-24 01:03:00,
2013-02-23 18:09:00,32.6,27.7,30.07,North,350,0.0,0.0,82,0.00,,,0.00,Wunderground v.1.15,2013-02-24 01:09:00,
2013-02-23 18:14:00,32.4,27.5,30.08,North,350,0.0,0.0,82,0.00,,,0.00,Wunderground v.1.15,2013-02-24 01:14:00,
2013-02-23 18:20:00,32.2,27.0,30.08,North,5,0.0,0.0,81,0.00,,,0.00,Wunderground v.1.15,2013-02-24 01:20:00,
2013-02-23 18:26:00,32.0,26.8,30.08,North,5,0.0,1.0,81,0.00,,,0.00,Wunderground v.1.15,2013-02-24 01:26:00,
2013-02-23 18:31:00,31.9,26.7,30.08,North,5,0.0,0.0,81,0.00,,,0.00,Wunderground v.1.15,2013-02-24 01:31:00,
2013-02-23 18:37:00,31.7,26.8,30.09,North,5,0.0,1.0,82,0.00,,,0.00,Wunderground v.1.15,2013-02-24 01:37:00,
2013-02-23 18:43:00,31.5,26.3,30.09,North,5,0.0,0.0,81,0.00,,,0.00,Wunderground v.1.15,2013-02-24 01:43:00,
2013-02-23 18:49:00,31.2,26.0,30.09,North,5,0.0,0.0,81,0.00,,,0.00,Wunderground v.1.15,2013-02-24 01:49:00,
2013-02-23 18:55:00,31.0,25.9,30.09,North,5,0.0,0.0,81,0.00,,,0.00,Wunderground v.1.15,2013-02-24 01:55:00,
2013-02-23 19:01:00,30.7,25.9,30.10,North,5,0.0,0.0,82,0.00,,,0.00,Wunderground v.1.15,2013-02-24 02:01:00,
2013-02-23 19:07:00,30.6,25.5,30.10,North,5,0.0,0.0,81,0.00,,,0.00,Wunderground v.1.15,2013-02-24 02:07:00,
2013-02-23 19:13:00,30.4,25.3,30.10,North,5,0.0,0.0,81,0.00,,,0.00,Wunderground v.1.15,2013-02-24 02:13:00,
2013-02-23 19:19:00,30.4,25.3,30.11,North,5,0.0,0.0,81,0.00,,,0.00,Wunderground v.1.15,2013-02-24 02:19:00,
2013-02-23 19:25:00,30.3,24.9,30.11,North,5,0.0,0.0,80,0.00,,,0.00,Wunderground v.1.15,2013-02-24 02:25:00,
2013-02-23 19:30:00,30.1,24.7,30.12,North,5,0.0,0.0,80,0.00,,,0.00,Wunderground v.1.15,2013-02-24 02:30:00,
2013-02-23 19:36:00,29.8,23.8,30.12,North,5,0.0,0.0,78,0.00,,,0.00,Wunderground v.1.15,2013-02-24 02:36:00,
2013-02-23 19:42:00,29.6,23.3,30.12,North,5,0.0,0.0,77,0.00,,,0.00,Wunderground v.1.15,2013-02-24 02:42:00,
2013-02-23 19:48:00,29.4,23.4,30.13,North,5,0.0,0.0,78,0.00,,,0.00,Wunderground v.1.15,2013-02-24 02:48:00,
2013-02-23 19:54:00,29.3,22.7,30.13,North,5,0.0,0.0,76,0.00,,,0.00,Wunderground v.1.15,2013-02-24 02:54:00,
2013-02-23 20:00:00,29.3,23.0,30.14,North,5,0.0,0.0,77,0.00,,,0.00,Wunderground v.1.15,2013-02-24 03:00:00,
2013-02-23 20:05:00,29.3,22.7,30.14,SSE,161,0.0,4.0,76,0.00,,,0.00,Wunderground v.1.15,2013-02-24 03:05:00,
2013-02-23 20:11:00,29.3,22.7,30.15,SSW,205,0.0,1.0,76,0.00,,,0.00,Wunderground v.1.15,2013-02-24 03:11:00,
2013-02-23 20:17:00,29.3,22.7,30.15,SW,229,1.0,1.0,76,0.00,,,0.00,Wunderground v.1.15,2013-02-24 03:17:00,
2013-02-23 20:22:00,29.3,22.7,30.15,WSW,250,1.0,2.0,76,0.00,,,0.00,Wunderground v.1.15,2013-02-24 03:22:00,
2013-02-23 20:28:00,29.2,22.6,30.15,SE,145,1.0,4.0,76,0.00,,,0.00,Wunderground v.1.15,2013-02-24 03:28:00,
2013-02-23 20:34:00,28.9,22.6,30.16,WSW,246,0.0,1.0,77,0.00,,,0.00,Wunderground v.1.15,2013-02-24 03:34:00,
2013-02-23 20:39:00,28.7,22.7,30.16,South,170,0.0,1.0,78,0.00,,,0.00,Wunderground v.1.15,2013-02-24 03:39:00,
2013-02-23 20:45:00,28.4,22.4,30.17,South,170,0.0,0.0,78,0.00,,,0.00,Wunderground v.1.15,2013-02-24 03:45:00,
2013-02-23 20:50:00,28.3,22.6,30.17,SSW,198,0.0,0.0,79,0.00,,,0.00,Wunderground v.1.15,2013-02-24 03:50:00,
2013-02-23 20:56:00,27.9,22.5,30.17,SW,215,0.0,0.0,80,0.00,,,0.00,Wunderground v.1.15,2013-02-24 03:56:00,
2013-02-23 21:02:00,27.6,22.5,30.17,West,262,1.0,2.0,81,0.00,,,0.00,Wunderground v.1.15,2013-02-24 04:02:00,
2013-02-23 21:08:00,27.3,21.9,30.17,West,262,1.0,2.0,80,0.00,,,0.00,Wunderground v.1.15,2013-02-24 04:08:00,
2013-02-23 21:14:00,27.1,21.7,30.18,West,262,0.0,0.0,80,0.00,,,0.00,Wunderground v.1.15,2013-02-24 04:14:00,
2013-02-23 21:20:00,27.1,22.0,30.18,West,262,0.0,0.0,81,0.00,,,0.00,Wunderground v.1.15,2013-02-24 04:20:00,
2013-02-23 21:26:00,27.1,21.7,30.18,West,262,0.0,0.0,80,0.00,,,0.00,Wunderground v.1.15,2013-02-24 04:26:00,
2013-02-23 21:32:00,27.2,21.8,30.18,West,262,0.0,0.0,80,0.00,,,0.00,Wunderground v.1.15,2013-02-24 04:32:00,
2013-02-23 21:38:00,27.2,21.5,30.18,West,262,0.0,2.0,79,0.00,,,0.00,Wunderground v.1.15,2013-02-24 04:38:00,
2013-02-23 21:43:00,27.2,21.5,30.18,West,262,0.0,0.0,79,0.00,,,0.00,Wunderground v.1.15,2013-02-24 04:43:00,
2013-02-23 21:48:00,27.2,21.2,30.18,West,262,0.0,0.0,78,0.00,,,0.00,Wunderground v.1.15,2013-02-24 04:48:00,
2013-02-23 21:53:00,27.2,21.2,30.19,West,262,0.0,0.0,78,0.00,,,0.00,Wunderground v.1.15,2013-02-24 04:53:00,
2013-02-23 21:59:00,27.4,21.4,30.19,West,262,0.0,0.0,78,0.00,,,0.00,Wunderground v.1.15,2013-02-24 04:59:00,
2013-02-23 22:00:00,27.3,21.3,30.19,West,262,0.0,0.0,78,0.00,,,0.00,Wunderground v.1.15,2013-02-24 05:00:00,
2013-02-23 22:02:00,27.3,21.3,30.20,West,262,0.0,1.0,78,0.00,,,0.00,Wunderground v.1.15,2013-02-24 05:02:00,
2013-02-23 22:04:00,27.3,21.3,30.19,West,263,0.0,2.0,78,0.00,,,0.00,Wunderground v.1.15,2013-02-24 05:04:00,
2013-02-23 22:09:00,27.1,21.2,30.20,West,263,1.0,2.0,78,0.00,,,0.00,Wunderground v.1.15,2013-02-24 05:09:00,
2013-02-23 22:15:00,26.9,21.0,30.20,West,263,0.0,1.0,78,0.00,,,0.00,Wunderground v.1.15,2013-02-24 05:15:00,
2013-02-23 22:21:00,26.8,20.9,30.20,West,263,0.0,0.0,78,0.00,,,0.00,Wunderground v.1.15,2013-02-24 05:21:00,
2013-02-23 22:27:00,26.7,21.1,30.20,West,263,0.0,2.0,79,0.00,,,0.00,Wunderground v.1.15,2013-02-24 05:27:00,
2013-02-23 22:32:00,26.6,21.0,30.20,West,263,0.0,0.0,79,0.00,,,0.00,Wunderground v.1.15,2013-02-24 05:32:00,
2013-02-23 22:38:00,26.4,20.8,30.21,West,263,0.0,0.0,79,0.00,,,0.00,Wunderground v.1.15,2013-02-24 05:38:00,
2013-02-23 22:43:00,26.2,20.9,30.21,West,263,0.0,1.0,80,0.00,,,0.00,Wunderground v.1.15,2013-02-24 05:43:00,
2013-02-23 22:49:00,25.9,20.3,30.21,West,263,0.0,1.0,79,0.00,,,0.00,Wunderground v.1.15,2013-02-24 05:49:00,
2013-02-23 22:55:00,25.6,20.3,30.22,West,263,0.0,0.0,80,0.00,,,0.00,Wunderground v.1.15,2013-02-24 05:55:00,
2013-02-23 23:00:00,25.4,20.4,30.22,West,263,0.0,1.0,81,0.00,,,0.00,Wunderground v.1.15,2013-02-24 06:00:00,
2013-02-23 23:06:00,25.3,20.3,30.22,West,263,1.0,2.0,81,0.00,,,0.00,Wunderground v.1.15,2013-02-24 06:06:00,
2013-02-23 23:12:00,25.3,20.3,30.22,West,263,0.0,0.0,81,0.00,,,0.00,Wunderground v.1.15,2013-02-24 06:12:00,
2013-02-23 23:17:00,25.2,20.2,30.22,West,263,0.0,0.0,81,0.00,,,0.00,Wunderground v.1.15,2013-02-24 06:17:00,
2013-02-23 23:23:00,25.1,20.4,30.23,West,263,0.0,0.0,82,0.00,,,0.00,Wunderground v.1.15,2013-02-24 06:23:00,
2013-02-23 23:28:00,25.2,20.8,30.23,West,263,0.0,0.0,83,0.00,,,0.00,Wunderground v.1.15,2013-02-24 06:28:00,
2013-02-23 23:34:00,25.2,20.8,30.23,West,263,0.0,1.0,83,0.00,,,0.00,Wunderground v.1.15,2013-02-24 06:34:00,
2013-02-23 23:40:00,25.2,20.8,30.23,West,263,1.0,1.0,83,0.00,,,0.00,Wunderground v.1.15,2013-02-24 06:40:00,
2013-02-23 23:45:00,25.2,21.0,30.23,West,263,1.0,2.0,84,0.00,,,0.00,Wunderground v.1.15,2013-02-24 06:45:00,
2013-02-23 23:51:00,25.2,21.0,30.23,West,263,0.0,0.0,84,0.00,,,0.00,Wunderground v.1.15,2013-02-24 06:51:00,
2013-02-23 23:56:00,25.3,21.4,30.23,West,263,0.0,1.0,85,0.00,,,0.00,Wunderground v.1.15,2013-02-24 06:56:00,